sensor_id;sensor_type;location;lat;lon;timestamp;P1;durP1;ratioP1;P2;durP2;ratioP2
23242;SDS011;11790;49.578;11.214;2023-08-20T00:00:21;9.05;;;5.85;;
23242;SDS011;11790;49.578;11.214;2023-08-20T00:05:22;9.65;;;5.90;;
23242;SDS011;11790;49.578;11.214;2023-08-20T00:10:23;6.63;;;5.47;;
23242;SDS011;11790;49.578;11.214;2023-08-20T00:15:23;7.80;;;5.53;;
23242;SDS011;11790;49.578;11.214;2023-08-20T00:20:26;8.25;;;5.90;;
23242;SDS011;11790;49.578;11.214;2023-08-20T00:25:28;9.43;;;5.75;;
23242;SDS011;11790;49.578;11.214;2023-08-20T00:30:28;8.07;;;5.90;;
23242;SDS011;11790;49.578;11.214;2023-08-20T00:35:28;8.32;;;6.15;;
23242;SDS011;11790;49.578;11.214;2023-08-20T00:40:28;11.15;;;6.55;;
23242;SDS011;11790;49.578;11.214;2023-08-20T00:45:28;10.90;;;6.22;;
23242;SDS011;11790;49.578;11.214;2023-08-20T00:50:29;8.27;;;6.18;;
23242;SDS011;11790;49.578;11.214;2023-08-20T00:55:29;7.53;;;5.30;;
23242;SDS011;11790;49.578;11.214;2023-08-20T01:00:29;9.68;;;6.03;;
23242;SDS011;11790;49.578;11.214;2023-08-20T01:05:31;7.80;;;5.90;;
23242;SDS011;11790;49.578;11.214;2023-08-20T01:15:38;7.32;;;6.03;;
23242;SDS011;11790;49.578;11.214;2023-08-20T01:20:44;7.00;;;5.40;;
23242;SDS011;11790;49.578;11.214;2023-08-20T01:31:05;8.43;;;6.05;;
23242;SDS011;11790;49.578;11.214;2023-08-20T01:36:07;8.18;;;5.75;;
23242;SDS011;11790;49.578;11.214;2023-08-20T01:41:09;7.90;;;5.95;;
23242;SDS011;11790;49.578;11.214;2023-08-20T01:46:09;9.82;;;5.90;;
23242;SDS011;11790;49.578;11.214;2023-08-20T01:51:10;12.55;;;6.28;;
23242;SDS011;11790;49.578;11.214;2023-08-20T01:56:10;8.43;;;5.70;;
23242;SDS011;11790;49.578;11.214;2023-08-20T02:01:11;7.13;;;5.60;;
23242;SDS011;11790;49.578;11.214;2023-08-20T02:06:11;7.35;;;5.50;;
23242;SDS011;11790;49.578;11.214;2023-08-20T02:11:11;9.85;;;5.20;;
23242;SDS011;11790;49.578;11.214;2023-08-20T02:16:11;7.65;;;6.00;;
23242;SDS011;11790;49.578;11.214;2023-08-20T02:21:11;6.78;;;5.65;;
23242;SDS011;11790;49.578;11.214;2023-08-20T02:26:11;7.65;;;6.00;;
23242;SDS011;11790;49.578;11.214;2023-08-20T02:31:12;10.32;;;6.15;;
23242;SDS011;11790;49.578;11.214;2023-08-20T02:36:12;7.60;;;6.03;;
23242;SDS011;11790;49.578;11.214;2023-08-20T02:41:12;10.88;;;6.60;;
23242;SDS011;11790;49.578;11.214;2023-08-20T02:46:12;6.83;;;5.97;;
23242;SDS011;11790;49.578;11.214;2023-08-20T02:51:12;9.80;;;6.55;;
23242;SDS011;11790;49.578;11.214;2023-08-20T02:56:13;8.77;;;6.32;;
23242;SDS011;11790;49.578;11.214;2023-08-20T03:01:21;10.68;;;5.93;;
23242;SDS011;11790;49.578;11.214;2023-08-20T03:06:21;9.18;;;6.03;;
23242;SDS011;11790;49.578;11.214;2023-08-20T03:11:21;7.78;;;6.32;;
23242;SDS011;11790;49.578;11.214;2023-08-20T03:16:21;7.95;;;5.97;;
23242;SDS011;11790;49.578;11.214;2023-08-20T03:21:21;8.60;;;6.40;;
23242;SDS011;11790;49.578;11.214;2023-08-20T03:26:22;8.07;;;6.20;;
23242;SDS011;11790;49.578;11.214;2023-08-20T03:31:22;7.97;;;6.40;;
23242;SDS011;11790;49.578;11.214;2023-08-20T03:36:22;9.32;;;6.28;;
23242;SDS011;11790;49.578;11.214;2023-08-20T03:41:22;9.15;;;6.70;;
23242;SDS011;11790;49.578;11.214;2023-08-20T03:46:22;10.02;;;7.10;;
23242;SDS011;11790;49.578;11.214;2023-08-20T03:51:22;8.85;;;6.82;;
23242;SDS011;11790;49.578;11.214;2023-08-20T03:56:23;7.63;;;6.57;;
23242;SDS011;11790;49.578;11.214;2023-08-20T04:01:23;8.68;;;6.38;;
23242;SDS011;11790;49.578;11.214;2023-08-20T04:06:23;8.63;;;6.88;;
23242;SDS011;11790;49.578;11.214;2023-08-20T04:11:23;12.25;;;6.55;;
23242;SDS011;11790;49.578;11.214;2023-08-20T04:16:24;7.75;;;6.60;;
23242;SDS011;11790;49.578;11.214;2023-08-20T04:21:24;9.10;;;6.30;;
23242;SDS011;11790;49.578;11.214;2023-08-20T04:26:24;8.40;;;6.85;;
23242;SDS011;11790;49.578;11.214;2023-08-20T04:31:24;9.65;;;6.60;;
23242;SDS011;11790;49.578;11.214;2023-08-20T04:36:24;9.95;;;6.82;;
23242;SDS011;11790;49.578;11.214;2023-08-20T04:41:24;13.35;;;6.68;;
23242;SDS011;11790;49.578;11.214;2023-08-20T04:46:25;9.40;;;6.72;;
23242;SDS011;11790;49.578;11.214;2023-08-20T04:51:25;10.85;;;6.90;;
23242;SDS011;11790;49.578;11.214;2023-08-20T04:56:25;10.18;;;6.57;;
23242;SDS011;11790;49.578;11.214;2023-08-20T05:01:25;8.48;;;7.28;;
23242;SDS011;11790;49.578;11.214;2023-08-20T05:06:25;8.38;;;6.65;;
23242;SDS011;11790;49.578;11.214;2023-08-20T05:11:25;11.18;;;7.00;;
23242;SDS011;11790;49.578;11.214;2023-08-20T05:16:26;9.38;;;7.00;;
23242;SDS011;11790;49.578;11.214;2023-08-20T05:21:26;11.52;;;7.00;;
23242;SDS011;11790;49.578;11.214;2023-08-20T05:26:26;12.63;;;6.82;;
23242;SDS011;11790;49.578;11.214;2023-08-20T05:31:26;9.45;;;6.65;;
23242;SDS011;11790;49.578;11.214;2023-08-20T05:36:26;8.23;;;6.43;;
23242;SDS011;11790;49.578;11.214;2023-08-20T05:41:26;11.20;;;7.28;;
23242;SDS011;11790;49.578;11.214;2023-08-20T05:46:26;8.73;;;6.97;;
23242;SDS011;11790;49.578;11.214;2023-08-20T05:51:27;9.63;;;6.75;;
23242;SDS011;11790;49.578;11.214;2023-08-20T05:56:27;8.07;;;6.53;;
23242;SDS011;11790;49.578;11.214;2023-08-20T06:01:27;12.60;;;6.07;;
23242;SDS011;11790;49.578;11.214;2023-08-20T06:06:27;9.07;;;6.97;;
23242;SDS011;11790;49.578;11.214;2023-08-20T06:11:27;8.30;;;6.60;;
23242;SDS011;11790;49.578;11.214;2023-08-20T06:16:28;7.20;;;6.40;;
23242;SDS011;11790;49.578;11.214;2023-08-20T06:21:28;7.10;;;6.23;;
23242;SDS011;11790;49.578;11.214;2023-08-20T06:26:28;6.72;;;6.05;;
23242;SDS011;11790;49.578;11.214;2023-08-20T06:31:28;7.82;;;5.80;;
23242;SDS011;11790;49.578;11.214;2023-08-20T06:36:28;7.55;;;5.68;;
23242;SDS011;11790;49.578;11.214;2023-08-20T06:41:28;6.55;;;4.95;;
23242;SDS011;11790;49.578;11.214;2023-08-20T06:46:29;7.05;;;5.30;;
23242;SDS011;11790;49.578;11.214;2023-08-20T06:51:29;7.35;;;4.82;;
23242;SDS011;11790;49.578;11.214;2023-08-20T06:56:29;8.87;;;4.50;;
23242;SDS011;11790;49.578;11.214;2023-08-20T07:01:29;7.22;;;4.25;;
23242;SDS011;11790;49.578;11.214;2023-08-20T07:06:29;8.43;;;4.97;;
23242;SDS011;11790;49.578;11.214;2023-08-20T07:11:30;7.90;;;4.88;;
23242;SDS011;11790;49.578;11.214;2023-08-20T07:16:30;5.25;;;4.60;;
23242;SDS011;11790;49.578;11.214;2023-08-20T07:21:30;5.65;;;4.28;;
23242;SDS011;11790;49.578;11.214;2023-08-20T07:26:31;4.90;;;4.32;;
23242;SDS011;11790;49.578;11.214;2023-08-20T07:31:32;6.65;;;4.03;;
23242;SDS011;11790;49.578;11.214;2023-08-20T07:36:32;7.28;;;4.30;;
23242;SDS011;11790;49.578;11.214;2023-08-20T07:41:32;6.00;;;4.25;;
23242;SDS011;11790;49.578;11.214;2023-08-20T07:46:32;5.88;;;4.10;;
23242;SDS011;11790;49.578;11.214;2023-08-20T07:51:33;5.75;;;3.78;;
23242;SDS011;11790;49.578;11.214;2023-08-20T07:56:33;7.93;;;4.00;;
23242;SDS011;11790;49.578;11.214;2023-08-20T08:01:33;4.93;;;3.55;;
23242;SDS011;11790;49.578;11.214;2023-08-20T08:06:34;4.25;;;3.83;;
23242;SDS011;11790;49.578;11.214;2023-08-20T08:11:34;4.32;;;3.75;;
23242;SDS011;11790;49.578;11.214;2023-08-20T08:16:34;3.92;;;3.60;;
23242;SDS011;11790;49.578;11.214;2023-08-20T08:21:34;4.85;;;3.40;;
23242;SDS011;11790;49.578;11.214;2023-08-20T08:26:34;7.50;;;3.67;;
23242;SDS011;11790;49.578;11.214;2023-08-20T08:31:38;8.40;;;4.03;;
23242;SDS011;11790;49.578;11.214;2023-08-20T08:36:38;3.63;;;3.30;;
23242;SDS011;11790;49.578;11.214;2023-08-20T08:41:38;5.90;;;3.40;;
23242;SDS011;11790;49.578;11.214;2023-08-20T08:46:39;6.38;;;3.67;;
23242;SDS011;11790;49.578;11.214;2023-08-20T08:51:39;5.07;;;3.28;;
23242;SDS011;11790;49.578;11.214;2023-08-20T08:56:42;5.53;;;3.35;;
23242;SDS011;11790;49.578;11.214;2023-08-20T09:01:42;5.25;;;3.65;;
23242;SDS011;11790;49.578;11.214;2023-08-20T09:06:46;4.15;;;3.17;;
23242;SDS011;11790;49.578;11.214;2023-08-20T09:11:47;5.78;;;3.13;;
23242;SDS011;11790;49.578;11.214;2023-08-20T09:16:47;6.70;;;3.35;;
23242;SDS011;11790;49.578;11.214;2023-08-20T09:21:53;4.45;;;2.90;;
23242;SDS011;11790;49.578;11.214;2023-08-20T09:26:58;6.32;;;3.47;;
23242;SDS011;11790;49.578;11.214;2023-08-20T09:32:01;4.43;;;3.28;;
23242;SDS011;11790;49.578;11.214;2023-08-20T09:37:07;4.50;;;3.17;;
23242;SDS011;11790;49.578;11.214;2023-08-20T09:47:09;4.13;;;3.13;;
23242;SDS011;11790;49.578;11.214;2023-08-20T09:52:10;4.65;;;3.03;;
23242;SDS011;11790;49.578;11.214;2023-08-20T09:57:12;4.43;;;3.35;;
23242;SDS011;11790;49.578;11.214;2023-08-20T10:02:14;5.72;;;3.30;;
23242;SDS011;11790;49.578;11.214;2023-08-20T10:07:15;4.00;;;3.10;;
23242;SDS011;11790;49.578;11.214;2023-08-20T10:12:15;5.28;;;3.28;;
23242;SDS011;11790;49.578;11.214;2023-08-20T10:17:15;3.20;;;2.90;;
23242;SDS011;11790;49.578;11.214;2023-08-20T10:22:17;4.60;;;3.00;;
23242;SDS011;11790;49.578;11.214;2023-08-20T10:27:24;5.43;;;3.60;;
23242;SDS011;11790;49.578;11.214;2023-08-20T10:38:02;7.75;;;3.00;;
23242;SDS011;11790;49.578;11.214;2023-08-20T10:43:03;4.80;;;2.65;;
23242;SDS011;11790;49.578;11.214;2023-08-20T10:48:03;3.00;;;2.70;;
23242;SDS011;11790;49.578;11.214;2023-08-20T10:53:04;5.80;;;2.65;;
23242;SDS011;11790;49.578;11.214;2023-08-20T10:58:05;5.55;;;2.78;;
23242;SDS011;11790;49.578;11.214;2023-08-20T11:03:05;4.43;;;2.78;;
23242;SDS011;11790;49.578;11.214;2023-08-20T11:08:05;6.67;;;2.77;;
23242;SDS011;11790;49.578;11.214;2023-08-20T11:13:07;4.80;;;2.57;;
23242;SDS011;11790;49.578;11.214;2023-08-20T11:18:08;5.70;;;2.45;;
23242;SDS011;11790;49.578;11.214;2023-08-20T11:23:08;9.10;;;2.70;;
23242;SDS011;11790;49.578;11.214;2023-08-20T11:28:10;3.28;;;2.17;;
23242;SDS011;11790;49.578;11.214;2023-08-20T11:33:10;3.13;;;2.30;;
23242;SDS011;11790;49.578;11.214;2023-08-20T11:38:11;6.80;;;3.03;;
23242;SDS011;11790;49.578;11.214;2023-08-20T11:43:12;4.32;;;2.53;;
23242;SDS011;11790;49.578;11.214;2023-08-20T11:48:13;3.33;;;3.00;;
23242;SDS011;11790;49.578;11.214;2023-08-20T11:53:13;4.18;;;2.85;;
23242;SDS011;11790;49.578;11.214;2023-08-20T11:58:14;4.65;;;2.45;;
23242;SDS011;11790;49.578;11.214;2023-08-20T12:03:14;3.67;;;3.00;;
23242;SDS011;11790;49.578;11.214;2023-08-20T12:08:15;7.25;;;3.05;;
23242;SDS011;11790;49.578;11.214;2023-08-20T12:13:15;4.63;;;2.65;;
23242;SDS011;11790;49.578;11.214;2023-08-20T12:18:16;5.50;;;2.40;;
23242;SDS011;11790;49.578;11.214;2023-08-20T12:23:16;6.90;;;2.60;;
23242;SDS011;11790;49.578;11.214;2023-08-20T12:28:16;3.90;;;2.75;;
23242;SDS011;11790;49.578;11.214;2023-08-20T12:33:17;5.72;;;2.85;;
23242;SDS011;11790;49.578;11.214;2023-08-20T12:38:17;4.47;;;2.67;;
23242;SDS011;11790;49.578;11.214;2023-08-20T12:43:17;4.75;;;2.90;;
23242;SDS011;11790;49.578;11.214;2023-08-20T12:48:18;7.28;;;3.20;;
23242;SDS011;11790;49.578;11.214;2023-08-20T12:53:19;4.07;;;2.63;;
23242;SDS011;11790;49.578;11.214;2023-08-20T12:58:19;3.45;;;2.72;;
23242;SDS011;11790;49.578;11.214;2023-08-20T13:03:20;6.95;;;2.60;;
23242;SDS011;11790;49.578;11.214;2023-08-20T13:08:20;6.27;;;2.93;;
23242;SDS011;11790;49.578;11.214;2023-08-20T13:13:21;4.10;;;2.70;;
23242;SDS011;11790;49.578;11.214;2023-08-20T13:18:22;7.53;;;2.60;;
23242;SDS011;11790;49.578;11.214;2023-08-20T13:23:24;6.03;;;2.78;;
23242;SDS011;11790;49.578;11.214;2023-08-20T13:28:24;4.50;;;2.60;;
23242;SDS011;11790;49.578;11.214;2023-08-20T13:33:25;3.63;;;2.42;;
23242;SDS011;11790;49.578;11.214;2023-08-20T13:38:26;3.60;;;2.95;;
23242;SDS011;11790;49.578;11.214;2023-08-20T13:43:27;5.15;;;2.80;;
23242;SDS011;11790;49.578;11.214;2023-08-20T13:48:27;4.18;;;2.55;;
23242;SDS011;11790;49.578;11.214;2023-08-20T13:53:27;5.78;;;2.72;;
23242;SDS011;11790;49.578;11.214;2023-08-20T13:58:27;3.25;;;2.80;;
23242;SDS011;11790;49.578;11.214;2023-08-20T14:03:27;3.80;;;3.08;;
23242;SDS011;11790;49.578;11.214;2023-08-20T14:08:27;4.53;;;2.80;;
23242;SDS011;11790;49.578;11.214;2023-08-20T14:13:28;8.55;;;2.80;;
23242;SDS011;11790;49.578;11.214;2023-08-20T14:18:28;4.05;;;2.55;;
23242;SDS011;11790;49.578;11.214;2023-08-20T14:23:28;4.53;;;3.10;;
23242;SDS011;11790;49.578;11.214;2023-08-20T14:28:29;7.68;;;2.88;;
23242;SDS011;11790;49.578;11.214;2023-08-20T14:33:30;2.63;;;2.40;;
23242;SDS011;11790;49.578;11.214;2023-08-20T14:38:30;3.65;;;2.42;;
23242;SDS011;11790;49.578;11.214;2023-08-20T14:43:32;6.37;;;3.00;;
23242;SDS011;11790;49.578;11.214;2023-08-20T14:48:32;3.30;;;2.30;;
23242;SDS011;11790;49.578;11.214;2023-08-20T14:53:32;4.85;;;2.60;;
23242;SDS011;11790;49.578;11.214;2023-08-20T14:58:32;2.70;;;2.50;;
23242;SDS011;11790;49.578;11.214;2023-08-20T15:03:33;3.13;;;2.53;;
23242;SDS011;11790;49.578;11.214;2023-08-20T15:08:33;4.07;;;2.72;;
23242;SDS011;11790;49.578;11.214;2023-08-20T15:13:33;4.22;;;2.42;;
23242;SDS011;11790;49.578;11.214;2023-08-20T15:18:33;4.00;;;2.40;;
23242;SDS011;11790;49.578;11.214;2023-08-20T15:23:33;4.85;;;2.58;;
23242;SDS011;11790;49.578;11.214;2023-08-20T15:28:34;5.23;;;2.77;;
23242;SDS011;11790;49.578;11.214;2023-08-20T15:33:34;4.47;;;2.35;;
23242;SDS011;11790;49.578;11.214;2023-08-20T15:38:34;3.75;;;2.47;;
23242;SDS011;11790;49.578;11.214;2023-08-20T15:43:34;3.40;;;2.60;;
23242;SDS011;11790;49.578;11.214;2023-08-20T15:48:34;6.90;;;3.15;;
23242;SDS011;11790;49.578;11.214;2023-08-20T15:53:35;3.60;;;2.85;;
23242;SDS011;11790;49.578;11.214;2023-08-20T15:58:35;3.78;;;2.70;;
23242;SDS011;11790;49.578;11.214;2023-08-20T16:03:35;5.15;;;2.97;;
23242;SDS011;11790;49.578;11.214;2023-08-20T16:08:36;3.43;;;2.93;;
23242;SDS011;11790;49.578;11.214;2023-08-20T16:13:36;3.33;;;2.78;;
23242;SDS011;11790;49.578;11.214;2023-08-20T16:18:36;4.60;;;2.85;;
23242;SDS011;11790;49.578;11.214;2023-08-20T16:23:36;3.65;;;2.78;;
23242;SDS011;11790;49.578;11.214;2023-08-20T16:28:36;7.78;;;3.20;;
23242;SDS011;11790;49.578;11.214;2023-08-20T16:33:37;4.95;;;3.20;;
23242;SDS011;11790;49.578;11.214;2023-08-20T16:38:37;4.50;;;2.83;;
23242;SDS011;11790;49.578;11.214;2023-08-20T16:43:38;6.25;;;3.40;;
23242;SDS011;11790;49.578;11.214;2023-08-20T16:48:38;4.32;;;2.90;;
23242;SDS011;11790;49.578;11.214;2023-08-20T16:53:38;3.80;;;2.75;;
23242;SDS011;11790;49.578;11.214;2023-08-20T16:58:38;3.53;;;2.85;;
23242;SDS011;11790;49.578;11.214;2023-08-20T17:03:38;4.22;;;2.88;;
23242;SDS011;11790;49.578;11.214;2023-08-20T17:08:39;3.38;;;2.90;;
23242;SDS011;11790;49.578;11.214;2023-08-20T17:13:39;5.80;;;2.95;;
23242;SDS011;11790;49.578;11.214;2023-08-20T17:18:39;4.90;;;3.00;;
23242;SDS011;11790;49.578;11.214;2023-08-20T17:23:39;5.20;;;2.67;;
23242;SDS011;11790;49.578;11.214;2023-08-20T17:28:40;6.05;;;3.00;;
23242;SDS011;11790;49.578;11.214;2023-08-20T17:33:40;5.03;;;3.08;;
23242;SDS011;11790;49.578;11.214;2023-08-20T17:38:42;4.97;;;3.38;;
23242;SDS011;11790;49.578;11.214;2023-08-20T17:43:42;6.27;;;3.47;;
23242;SDS011;11790;49.578;11.214;2023-08-20T17:48:42;3.90;;;3.40;;
23242;SDS011;11790;49.578;11.214;2023-08-20T17:53:42;6.20;;;3.72;;
23242;SDS011;11790;49.578;11.214;2023-08-20T17:58:43;5.88;;;4.00;;
23242;SDS011;11790;49.578;11.214;2023-08-20T18:03:43;6.00;;;4.45;;
23242;SDS011;11790;49.578;11.214;2023-08-20T18:08:43;9.63;;;4.55;;
23242;SDS011;11790;49.578;11.214;2023-08-20T18:13:43;11.70;;;5.10;;
23242;SDS011;11790;49.578;11.214;2023-08-20T18:18:44;8.60;;;4.78;;
23242;SDS011;11790;49.578;11.214;2023-08-20T18:23:44;10.57;;;4.45;;
23242;SDS011;11790;49.578;11.214;2023-08-20T18:28:44;9.35;;;5.55;;
23242;SDS011;11790;49.578;11.214;2023-08-20T18:33:45;7.00;;;5.22;;
23242;SDS011;11790;49.578;11.214;2023-08-20T18:38:46;7.55;;;4.82;;
23242;SDS011;11790;49.578;11.214;2023-08-20T18:43:46;6.15;;;5.05;;
23242;SDS011;11790;49.578;11.214;2023-08-20T18:48:46;6.03;;;4.93;;
23242;SDS011;11790;49.578;11.214;2023-08-20T18:53:46;9.43;;;5.10;;
23242;SDS011;11790;49.578;11.214;2023-08-20T18:58:47;6.10;;;4.78;;
23242;SDS011;11790;49.578;11.214;2023-08-20T19:03:47;11.43;;;5.10;;
23242;SDS011;11790;49.578;11.214;2023-08-20T19:08:47;6.10;;;5.20;;
23242;SDS011;11790;49.578;11.214;2023-08-20T19:13:47;7.18;;;5.55;;
23242;SDS011;11790;49.578;11.214;2023-08-20T19:18:47;5.97;;;5.40;;
23242;SDS011;11790;49.578;11.214;2023-08-20T19:23:49;5.72;;;5.18;;
23242;SDS011;11790;49.578;11.214;2023-08-20T19:28:50;8.23;;;6.22;;
23242;SDS011;11790;49.578;11.214;2023-08-20T19:33:50;8.88;;;6.20;;
23242;SDS011;11790;49.578;11.214;2023-08-20T19:38:50;9.20;;;5.95;;
23242;SDS011;11790;49.578;11.214;2023-08-20T19:43:50;7.45;;;5.60;;
23242;SDS011;11790;49.578;11.214;2023-08-20T19:48:50;6.50;;;5.90;;
23242;SDS011;11790;49.578;11.214;2023-08-20T19:53:51;7.63;;;6.20;;
23242;SDS011;11790;49.578;11.214;2023-08-20T19:58:51;7.13;;;6.10;;
23242;SDS011;11790;49.578;11.214;2023-08-20T20:03:51;8.85;;;6.28;;
23242;SDS011;11790;49.578;11.214;2023-08-20T20:08:52;9.13;;;6.38;;
23242;SDS011;11790;49.578;11.214;2023-08-20T20:13:52;8.45;;;6.28;;
23242;SDS011;11790;49.578;11.214;2023-08-20T20:18:52;8.93;;;6.18;;
23242;SDS011;11790;49.578;11.214;2023-08-20T20:23:52;7.38;;;5.50;;
23242;SDS011;11790;49.578;11.214;2023-08-20T20:28:53;7.53;;;6.45;;
23242;SDS011;11790;49.578;11.214;2023-08-20T20:33:53;8.07;;;6.70;;
23242;SDS011;11790;49.578;11.214;2023-08-20T20:38:53;7.78;;;6.45;;
23242;SDS011;11790;49.578;11.214;2023-08-20T20:43:53;7.63;;;6.68;;
23242;SDS011;11790;49.578;11.214;2023-08-20T20:48:53;7.15;;;6.35;;
23242;SDS011;11790;49.578;11.214;2023-08-20T20:53:53;7.78;;;6.40;;
23242;SDS011;11790;49.578;11.214;2023-08-20T20:58:54;8.18;;;5.70;;
23242;SDS011;11790;49.578;11.214;2023-08-20T21:03:54;8.90;;;6.95;;
23242;SDS011;11790;49.578;11.214;2023-08-20T21:08:54;10.97;;;6.87;;
23242;SDS011;11790;49.578;11.214;2023-08-20T21:13:55;10.40;;;6.45;;
23242;SDS011;11790;49.578;11.214;2023-08-20T21:18:56;8.13;;;7.03;;
23242;SDS011;11790;49.578;11.214;2023-08-20T21:23:56;8.77;;;7.00;;
23242;SDS011;11790;49.578;11.214;2023-08-20T21:28:56;12.02;;;7.20;;
23242;SDS011;11790;49.578;11.214;2023-08-20T21:33:56;8.32;;;6.65;;
23242;SDS011;11790;49.578;11.214;2023-08-20T21:38:57;8.15;;;7.05;;
23242;SDS011;11790;49.578;11.214;2023-08-20T21:43:57;9.05;;;6.68;;
23242;SDS011;11790;49.578;11.214;2023-08-20T21:48:57;12.73;;;7.38;;
23242;SDS011;11790;49.578;11.214;2023-08-20T21:53:57;8.90;;;6.72;;
23242;SDS011;11790;49.578;11.214;2023-08-20T21:59:01;8.00;;;6.57;;
23242;SDS011;11790;49.578;11.214;2023-08-20T22:04:01;8.98;;;6.93;;
23242;SDS011;11790;49.578;11.214;2023-08-20T22:09:01;9.73;;;6.38;;
23242;SDS011;11790;49.578;11.214;2023-08-20T22:14:01;10.30;;;7.00;;
23242;SDS011;11790;49.578;11.214;2023-08-20T22:19:02;10.75;;;6.85;;
23242;SDS011;11790;49.578;11.214;2023-08-20T22:24:02;9.27;;;7.72;;
23242;SDS011;11790;49.578;11.214;2023-08-20T22:29:02;11.15;;;7.93;;
23242;SDS011;11790;49.578;11.214;2023-08-20T22:34:03;8.48;;;7.50;;
23242;SDS011;11790;49.578;11.214;2023-08-20T22:39:03;8.15;;;7.32;;
23242;SDS011;11790;49.578;11.214;2023-08-20T22:44:05;8.82;;;7.15;;
23242;SDS011;11790;49.578;11.214;2023-08-20T22:49:05;7.60;;;6.80;;
23242;SDS011;11790;49.578;11.214;2023-08-20T22:54:05;7.60;;;6.80;;
23242;SDS011;11790;49.578;11.214;2023-08-20T22:59:05;9.02;;;7.05;;
23242;SDS011;11790;49.578;11.214;2023-08-20T23:04:05;8.18;;;6.22;;
23242;SDS011;11790;49.578;11.214;2023-08-20T23:09:06;9.45;;;7.15;;
23242;SDS011;11790;49.578;11.214;2023-08-20T23:14:06;8.43;;;6.40;;
23242;SDS011;11790;49.578;11.214;2023-08-20T23:19:06;9.10;;;7.03;;
23242;SDS011;11790;49.578;11.214;2023-08-20T23:24:08;9.18;;;6.93;;
23242;SDS011;11790;49.578;11.214;2023-08-20T23:29:08;10.50;;;7.20;;
23242;SDS011;11790;49.578;11.214;2023-08-20T23:34:08;7.88;;;6.70;;
23242;SDS011;11790;49.578;11.214;2023-08-20T23:39:08;12.85;;;7.13;;
23242;SDS011;11790;49.578;11.214;2023-08-20T23:44:08;8.10;;;7.00;;
23242;SDS011;11790;49.578;11.214;2023-08-20T23:49:09;10.18;;;8.00;;
23242;SDS011;11790;49.578;11.214;2023-08-20T23:54:10;8.85;;;7.78;;
23242;SDS011;11790;49.578;11.214;2023-08-20T23:59:10;9.95;;;7.38;;
